Timeline UpdatesTrip UpdatesNews PostsPvt PostsTravel TipsAdmin PostsConv PostsFollowed PostsChat RequestsBlog PostsPNR Posts

Disclaimer
Search
 
 
Wed Jul 30, 2014 08:28:32 ISTHomeTrainsΣChainsAtlasPNRForumGalleryNewsFAQTripsMembersLoginFeedback
No Recent News for this Train
Other Trains in the News **new
Latest...
..
Tue Jul 15, 2014 (10:55AM)
⇐ Return Journey: Train# 18238

18237/Chhattisgarh Express

May 08 2014 (6:20PM)
Change Departure Station:
Change Arrival Station:
Post a Train Travel TipPost a Train Travel Tip **new
Post a Comment/Question/Picture/VideoPost a Comment/Question/Picture/Video
Inaugural Run
Sat Jan 01, 1977
Pantry/Catering
✓ Pantry Car Avbl
✓ Catering Avbl
Food is of Average Quality
Loco/Rake Reversals
NGP/Nagpur Junction (8);
RSA - Rake Sharing
58209
Rake/Coach Composition
LOCO-SLR-GS-GS-S1-S2-S3-S4-S5-S6-S7-S8-S9-S10-PC-S11-S12-B3-B2-B1-A1-HA1-GS-SLR-SP1
Loco
BSP - NGP --- ET WAP4 NGP - NZM --- AJNI...
Read more...
WAP7 NZM - ASR ---- TKD WDP4 Author: Mahesh Gupta Entry# 295353
News    PNR    Forum    Time-Table    Availability    Fare Chart    Map    Arr/Dep History    Trips    Gallery    ΣChains    X/O    Timeline    
Travel Time: 1h 16m    2 halts    Distance: 73 km    Avg Speed: 57 km/hr
Type: Mail/Express
Zone: SECR/South East Central
Departs @ 18:02 (Avg 26m late)
Platform# ???
SMTWTFS
Dongargarh/DGG 
Arrives @ 19:18 (Avg 22m late)
Platform# ???
SMTWTFS
Gondia Junction/G 

2 halts. 7 intermediate Stations between Dongargarh and Gondia Junction

Show ALL intermediate Stations  Show Old Time-Table

#CodeStation NameX/OArrivesAvgDepartsAvgHaltPFDay#KmSpeedElevZoneAddress
1BSPBilaspur Junction (8)  -14:15+331-209.449271mSECRBilaspur, Chhattisgarh
2BYLBelha  14:34+714:35+81m--1-193.877269mSECRCollege Road, Chhattisgarh
3BYTBhatapara (4)X  14:59+1215:00+131m--1-163.271270mSECRBanjari Road, Chhattisgarh
4HNHathbandhX  15:13+1315:14+141m--1-147.864283mSECRRaipur, Chhattisgarh
5TLDTilda (3)X  15:24+1415:25+151m--1-137.151291mSECRBanjari Rd, Chhattisgarh
6RRaipur Junction (6)XO  16:10+1416:20+1410m--1-98.980297mSECRRaipur, Chhattisgarh
7BPHBBhilai Power House (3)  16:41+816:42+91m--1-70.919312mSECRBhilai, Chhattisgarh
8DURGDurg Junction (6)X  17:10+917:15+115m11-62.087299mSECRPh: 91-788-2322059, Chhattisgarh
9RJNRaj Nandgaon (3)X  17:36+1917:38+192m--1-31.582313mSECRRajnandgaon, Chhattisgarh
10DGG»Dongargarh (2)»  18:01+2418:02+261m--10.065353mSECRDongargarh, Chhattisgarh
11SKSSalekasa (2)  18:35+3018:36+311m--135.774312mSECRRajnandgaon, Chhattisgarh
12AGNAmgaon (2)  18:48+3118:49+321m--150.547317mSECRGondia, Maharashtra
13G•Gondia Junction (7)•  19:18+2219:23+235m--173.388316mSECRGondia 441601, Maharashtra
14TROTirora (3)  19:43+3019:44+311m--1102.668282mSECRDist Gondiya, Maharashtra
15TMRTumsar Road (3)X  20:02+2820:03+291m--1122.967267mSECRBhandara, Maharashtra
16BRDBhandara Road (2)  20:19+2820:20+291m--1140.985266mSECRState Highway 252, Maharashtra
17KPKamptee (3)  20:54+3120:55+311m--1188.819290mSECRMH 441001, Maharashtra
18NGPNagpur Junction (8)X21:40+1622:05+1825m31203.183314mCRNagpur 440001, Maharashtra
19KATLKatol (2)X  22:49+3222:50+341m--1264.079415mCRKatol, Maharashtra
20NRKRNarkher Junction (3)  23:09+3923:10+411m--1289.158411mCRNarkher, Maharashtra
21PARPandhurna (2)  23:29+4023:30+451m--1307.548481mCRDistt: Chhindwara, Madhya Pradesh
22MTYMultai (2)X  00:21+4000:22+411m--2348.360762mCRMultai, Madhya Pradesh
23AMLAAmla Junction (5)XO  00:45+4601:20+3735m--2371.153733mCRAmla Distt. Betul, Madhya Pradesh
24BZUBetul (3)  01:46+3401:47+371m--2394.050644mCRBetul, Madhya Pradesh
25GDYAGhoradongri (3)XO  02:30+3602:31+381m--2429.939410mCRBetul, Madhya Pradesh
26ETItarsi Junction (7)  04:20+2104:25+305m--2500.357329mWCRItarsi 461111, Madhya Pradesh
27HBDHoshangabad (2)X  04:44+3404:45+351m--2518.449308mWCRHoshangabad, Madhya Pradesh
28ODGObaidulla Ganj  05:31+4305:32+441m22556.154450mWCRObaidullaganj Raisen Dist., Madhya Pradesh
29HBJBhopal HabibGanj (5)XO  06:05+4206:06+471m42585.716496mWCRHabibGanj, Madhya Pradesh
30BPLBhopal Junction (6)X  06:30+4006:35+435m22592.071497mWCRBhopal, Madhya Pradesh
31BHSVidisha (3)X  07:20+4207:22+422m12645.584432mWCRVidisha, Madhya Pradesh
32BAQGanj Basoda (4)X  07:50+4607:51+481m12684.845416mWCRVidisha, Madhya Pradesh
33MABAMandi Bamora (3)XO  08:29+3508:30+361m12713.323413mWCRState Highway 14, Madhya Pradesh
34BINABina Junction (4)X  09:15+1409:20+175m22730.656414mWCRJn Pt - KATNI/GUNA/ BPL/JHS, Madhya Pradesh
35DUADhaura (3)XO  09:57+1909:58+211m--2765.250407mNCRDhaura Tanda, Madhya Pradesh
36JLNJakhalaun (3)  10:12+1810:14+202m--2776.7144394mNCRLalitpur(05176-272220), Uttar Pradesh
37LARLalitpur (3)  10:21+2810:22+301m32793.586373mNCRLalitpur, Uttar Pradesh
38TBTTalbahat (4)O  10:50+3510:52+362m--2833.451314mNCRKhaniyadhana Station Rd, Madhya Pradesh
39BZYBasai (3)X  11:07+3511:08+361m22846.252287mNCR07522289600(Gate ManMob. - 9452701575), Madhya Pradesh
40BABBabina (3)  11:22+3611:23+381m22858.333285mNCRBabina, Uttar Pradesh
41JHSJhansi Junction (7)X  12:10+2212:18+278m42883.865259mNCRJhansi, Uttar Pradesh
42DAADatia (2)X  12:41+3212:42+341m12908.853264mNCRDatia, Madhya Pradesh
43SORSonagir (2)X  12:55+3312:56+361m--2920.466211mNCRDatia, Madhya Pradesh
44DBADabra (3)X  13:13+3713:14+381m12939.269204mNCRDabra(District-Gwalior), Madhya Pradesh
45GWLGwalior Junction (4)X  13:51+4813:56+505m22981.572214mNCRGwalior, Madhya Pradesh
46BAOBanmor  14:12+5814:13+591m--21000.855189mNCRGwalior, Madhya Pradesh
47MRAMorena (3)  14:34+5414:35+561m221020.173176mNCRMorena, Madhya Pradesh
48DHODholpur Junction (3)X  14:57+5514:58+581m121046.951177mNCRDholpur, Rajasthan
49AGCAgra Cantt. (6)XO  16:00+5316:08+548m221099.530174mNCRAgra, Uttar Pradesh
50RKMRaja Ki Mandi (4)  16:16+1:0016:17+1:011m121103.562170mNCRAgra, Uttar Pradesh
51MTJMathura Junction (10)X  17:05+1:0117:10+1:015m221153.281179mNCRMathura, Uttar Pradesh
52CHJChata (4)X  17:33+1:0517:34+1:061m221184.451185mNCRChhata, Uttar Pradesh
53KSVKosi Kalan (3)X  17:46+1:0617:47+1:071m121194.749189mNCRKosi Kalan, Uttar Pradesh
54PWLPalwal (8)  18:39+4818:40+501m--21237.167200mNRPalwal, Haryana
55BVHBallabgarh (5)  18:59+5619:00+571m--21258.340203mNRFaridabad, Haryana
56FDBFaridabad (4)X  19:12+5819:13+591m221266.439206mNRold Faridabad, Haryana
57NZMDelhi Hazrat Nizamuddin (7)O  19:45+1:0920:15+1:0730m121287.225209mNRNizamuddin East/Sarai KaleKhan Bus Terminal, Delhi NCT
58SBBSahibabad Junction (5)XO  20:53+1:0120:54+1:011m--21303.229209mNRGhaziabad, Uttar Pradesh
59GZBGhaziabad Junction (6)  21:08+1:0221:10+1:022m121309.962217mNRGhaziabad, Uttar Pradesh
60MUDMuradnagar (2)X  21:27+1:1321:28+1:141m--21327.555220mNRGhaziabad, Uttar Pradesh
61MDNRModinagar (2)X  21:39+1:1321:40+1:141m--21337.758221mNRGhaziabad, Uttar Pradesh
62MTCMeerut City Junction (6)  22:00+1:1622:05+1:145m321357.143229mNRMeerut, Uttar Pradesh
63MUTMeerut Cantt. (2)  22:11+1:1922:12+1:201m--21361.467230mNRMeerut, Uttar Pradesh
64KATKhatauli (2)  22:38+1:1822:39+1:201m221390.567239mNRKhatauli, Uttar Pradesh
65MOZMuzaffarnagar (3)  22:59+1:2023:00+1:211m221412.769247mNRMuzaffarNagar, Uttar Pradesh
66DBDDeoband (2)  23:21+1:1223:22+1:121m221436.735258mNRSaharanpur, Uttar Pradesh
67SRESaharanpur Junction (6)X  00:20+1:1500:30+1:1710m431470.962276mNRSaharanpur, Uttar Pradesh
68JUDYamunanagar-Jagadhri (3)X  00:59+1:2401:00+1:251m331501.138275mNRYamunanagar, Haryana
69JUDWJagadhri Workshop (2)X  01:08+1:2601:09+1:271m231506.171280mNRRailway Workshop Road, Haryana
70RAABarara (2)  01:27+1:2701:28+1:281m231527.340279mNRBarara, Haryana
71UMBAmbala Cantt. Junction (7)X  02:05+1:1702:15+1:1710m231552.132278mNRAmbala 133001, Haryana
72UBCAmbala City (3)X  02:29+1:1802:30+1:191m331559.772273mNRNH-1, Haryana
73RPJRajpura Junction (3)X  02:47+1:1902:48+1:201m131580.139272mNRNH-1, Punjab
74SIRSirhind Junction (3)XO  03:26+1:0303:28+1:052m131605.059271mNRSirhind, Punjab
75GVGMandi Gobindgarh (2)  03:38+1:0403:39+1:051m131614.841268mNRMandi Gobindgarh, Punjab
76KNNKhanna (3)XO  03:51+1:0303:52+1:041m131622.968269mNRNH 1, Punjab
77LDHLudhiana Junction (7)X  04:30+1:2004:40+1:3910m231665.733246mNRLudhiana 141001, Punjab
78PHRPhillaur Junction (3)XO  05:04+1:3305:05+1:341m231678.871246mNRPhillaur, Punjab
79PGWPhagwara Junction (3)O  05:24+1:3405:25+1:341m231701.454245mNRPhagwara, Punjab
80JRCJalandhar Cantt. Junction (3)  05:43+1:3205:45+1:322m131717.729239mNRNear Rama Mandi, Punjab
81JUCJalandhar City Junction (5)X  05:55+1:3006:00+1:325m131722.546239mNRJalandhar 144001, Punjab
82KREKartarpur (2)X  06:19+1:2806:20+1:291m231737.248236mNRKartarpur, Punjab
83BEASBeas Junction (2)  06:47+1:2206:48+1:231m131758.675238mNRBeas, Punjab
84JNLJandiala (2)X  07:07+1:2207:08+1:231m131782.519238mNRJandiala, Punjab
85ASRAmritsar Junction (5)  08:10+47-331801.6-233mNRAmritsar 143002, Punjab
Scroll to Top
Scroll to Bottom